Time;durP1;ratioP1;P1;durP2;ratioP2;P2;SDS_P1;SDS_P2;PMS_P1;PMS_P2;Temp;Humidity;BMP_temperature;BMP_pressure;BME280_temperature;BME280_humidity;BME280_pressure;Samples;Min_cycle;Max_cycle;Signal;HPM_P1;HPM_P2
2023/03/15 00:02:18;;;;;;;;;;;;;;;3.39;77.11;97300.00;5096375;28;19938;-56
2023/03/15 00:04:45;;;;;;;;;;;;;;;3.32;77.62;97311.06;5110033;28;19972;-56
2023/03/15 00:07:13;;;;;;;;;;;;;;;3.35;77.51;97315.88;5107846;28;19938;-57
2023/03/15 00:09:41;;;;;;;;;;;;;;;3.20;77.83;97320.56;5093576;28;19928;-56
2023/03/15 00:12:08;;;;;;;;;;;;;;;3.22;78.06;97318.38;5098525;28;19931;-56
2023/03/15 00:14:36;;;;;;;;;;;;;;;3.22;77.65;97334.50;5100470;28;20301;-56
2023/03/15 00:17:04;;;;;;;;;;;;;;;3.23;78.82;97336.88;5101233;28;19924;-57
2023/03/15 00:19:33;;;;;;;;;;;;;;;3.24;78.18;97341.19;5098752;28;19928;-56
2023/03/15 00:22:01;;;;;;;;;;;;;;;3.14;78.29;97342.06;5104489;28;19927;-56
2023/03/15 00:24:29;;;;;;;;;;;;;;;3.33;78.52;97338.72;5105695;28;20468;-56
2023/03/15 00:26:57;;;;;;;;;;;;;;;3.41;78.27;97356.94;5105613;28;19924;-56
2023/03/15 00:29:27;;;;;;;;;;;;;;;3.42;77.45;97361.22;5089357;28;19931;-56
2023/03/15 00:31:54;;;;;;;;;;;;;;;3.24;78.72;97361.84;5080076;28;20522;-56
2023/03/15 00:34:25;;;;;;;;;;;;;;;3.46;77.70;97369.50;5100784;28;19924;-56
2023/03/15 00:36:54;;;;;;;;;;;;;;;3.23;77.57;97373.66;5105797;28;20384;-56
2023/03/15 00:39:24;;;;;;;;;;;;;;;3.33;77.71;97376.31;5100950;28;19931;-56
2023/03/15 00:41:55;;;;;;;;;;;;;;;3.30;77.92;97385.72;5083296;28;19934;-56
2023/03/15 00:44:25;;;;;;;;;;;;;;;3.40;78.35;97387.53;5103403;28;20392;-56
2023/03/15 00:46:52;;;;;;;;;;;;;;;3.50;77.72;97392.03;5101875;28;19924;-55
2023/03/15 00:49:21;;;;;;;;;;;;;;;3.57;77.53;97397.91;5100866;28;19924;-56
2023/03/15 00:51:48;;;;;;;;;;;;;;;3.43;78.14;97397.72;5088413;28;20418;-56
2023/03/15 00:54:17;;;;;;;;;;;;;;;3.49;77.37;97402.00;5091282;28;19939;-56
2023/03/15 00:56:46;;;;;;;;;;;;;;;3.48;77.21;97416.50;5092696;28;19954;-56
2023/03/15 00:59:14;;;;;;;;;;;;;;;3.52;77.73;97412.19;5088357;28;19924;-56
2023/03/15 01:01:43;;;;;;;;;;;;;;;3.48;77.98;97419.19;5102712;28;19934;-56
2023/03/15 01:04:11;;;;;;;;;;;;;;;3.50;77.23;97413.53;5104033;28;19924;-56
2023/03/15 01:06:41;;;;;;;;;;;;;;;3.52;77.77;97422.94;5104199;28;19923;-56
2023/03/15 01:09:11;;;;;;;;;;;;;;;3.54;77.16;97431.50;5094159;28;19999;-56
2023/03/15 01:11:40;;;;;;;;;;;;;;;3.51;76.84;97437.41;5091422;28;19924;-56
2023/03/15 01:14:09;;;;;;;;;;;;;;;3.50;77.13;97437.69;5090535;28;19924;-56
2023/03/15 01:16:37;;;;;;;;;;;;;;;3.43;76.19;97443.38;5088974;28;20018;-56
2023/03/15 01:19:04;;;;;;;;;;;;;;;3.35;76.17;97454.69;5087121;28;19931;-56
2023/03/15 01:21:32;;;;;;;;;;;;;;;3.27;76.73;97463.31;5080608;28;19932;-55
2023/03/15 01:24:00;;;;;;;;;;;;;;;3.23;76.99;97459.56;5092550;28;20373;-56
2023/03/15 01:26:28;;;;;;;;;;;;;;;3.24;77.64;97461.19;5099884;28;19928;-56
2023/03/15 01:28:58;;;;;;;;;;;;;;;3.19;77.78;97479.97;5097865;28;19931;-56
2023/03/15 01:31:27;;;;;;;;;;;;;;;3.24;77.63;97471.91;5085735;28;19935;-56
2023/03/15 01:33:55;;;;;;;;;;;;;;;3.05;77.30;97477.91;5106556;28;20262;-55
2023/03/15 01:36:23;;;;;;;;;;;;;;;3.01;78.08;97470.66;5105563;28;19988;-56
2023/03/15 01:38:52;;;;;;;;;;;;;;;2.89;78.01;97468.28;5102748;28;19924;-55
2023/03/15 01:41:26;;;;;;;;;;;;;;;2.74;78.39;97477.16;5090862;28;19931;-56
2023/03/15 01:43:54;;;;;;;;;;;;;;;2.73;78.51;97480.13;5092962;28;19931;-55
2023/03/15 01:46:37;;;;;;;;;;;;;;;2.65;78.89;97483.34;5087606;28;19928;-55
2023/03/15 01:49:12;;;;;;;;;;;;;;;2.73;78.45;97485.50;5101224;28;19930;-56
2023/03/15 01:51:43;;;;;;;;;;;;;;;2.76;77.86;97492.97;5098580;28;19999;-55
2023/03/15 01:54:13;;;;;;;;;;;;;;;2.73;78.37;97499.69;5091419;28;19931;-56
2023/03/15 01:56:44;;;;;;;;;;;;;;;2.79;78.35;97485.19;5082198;28;19928;-56
2023/03/15 01:59:14;;;;;;;;;;;;;;;2.79;77.52;97495.13;5092798;28;19924;-56
2023/03/15 02:01:44;;;;;;;;;;;;;;;2.65;77.45;97494.88;5091410;28;19962;-55
2023/03/15 02:04:13;;;;;;;;;;;;;;;2.76;78.08;97498.34;5098840;28;19930;-55
2023/03/15 02:06:45;;;;;;;;;;;;;;;2.75;77.97;97505.59;5089790;28;20381;-56
2023/03/15 02:09:14;;;;;;;;;;;;;;;2.77;78.02;97499.94;5112929;28;20403;-55
2023/03/15 02:11:42;;;;;;;;;;;;;;;2.79;77.53;97508.53;5094269;28;19924;-55
2023/03/15 02:14:11;;;;;;;;;;;;;;;2.78;77.75;97513.09;5111722;28;19928;-56
2023/03/15 02:16:41;;;;;;;;;;;;;;;2.86;77.78;97517.09;5083290;28;20400;-55
2023/03/15 02:19:20;;;;;;;;;;;;;;;2.91;77.10;97514.41;5102201;28;19947;-56
2023/03/15 02:21:50;;;;;;;;;;;;;;;2.92;77.00;97521.38;5091883;28;20014;-58
2023/03/15 02:24:22;;;;;;;;;;;;;;;2.90;76.71;97526.22;5078914;28;19931;-55
2023/03/15 02:26:50;;;;;;;;;;;;;;;2.95;76.63;97526.22;5080906;28;19946;-55
2023/03/15 02:29:20;;;;;;;;;;;;;;;2.89;76.94;97527.31;5098622;28;19924;-55
2023/03/15 02:31:48;;;;;;;;;;;;;;;2.87;77.46;97532.13;5072643;28;19924;-56
2023/03/15 02:34:16;;;;;;;;;;;;;;;2.96;77.70;97543.91;5098228;28;19924;-55
2023/03/15 02:36:44;;;;;;;;;;;;;;;3.00;77.58;97542.31;5088030;28;19932;-55
2023/03/15 02:39:15;;;;;;;;;;;;;;;2.93;77.21;97544.47;5098931;28;19951;-55
2023/03/15 02:41:46;;;;;;;;;;;;;;;2.92;77.97;97553.59;5104923;28;19938;-55
2023/03/15 02:44:14;;;;;;;;;;;;;;;2.91;76.89;97556.53;5102743;28;19976;-56
2023/03/15 02:46:44;;;;;;;;;;;;;;;2.96;76.90;97560.03;5084453;28;19928;-56
2023/03/15 02:49:15;;;;;;;;;;;;;;;2.92;77.37;97569.69;5098579;28;20296;-55
2023/03/15 02:51:43;;;;;;;;;;;;;;;2.90;76.22;97574.53;5109263;28;19924;-55
2023/03/15 02:54:11;;;;;;;;;;;;;;;2.87;77.13;97575.84;5106184;28;20395;-55
2023/03/15 02:56:39;;;;;;;;;;;;;;;2.88;76.72;97579.38;5089813;28;19963;-55
2023/03/15 02:59:07;;;;;;;;;;;;;;;2.81;76.82;97579.63;5085918;28;19932;-55
2023/03/15 03:01:36;;;;;;;;;;;;;;;2.63;77.08;97588.22;5088980;28;20265;-57
2023/03/15 03:04:29;;;;;;;;;;;;;;;2.60;77.44;97594.91;5094745;28;20403;-56
2023/03/15 03:06:57;;;;;;;;;;;;;;;2.66;77.36;97606.44;5089312;28;19924;-56
2023/03/15 03:09:33;;;;;;;;;;;;;;;2.56;77.65;97607.25;5107623;28;19924;-56
2023/03/15 03:12:01;;;;;;;;;;;;;;;2.59;77.96;97608.59;5095272;28;19931;-56
2023/03/15 03:14:31;;;;;;;;;;;;;;;2.69;77.10;97619.31;5090933;28;19923;-55
2023/03/15 03:17:00;;;;;;;;;;;;;;;2.62;76.87;97618.78;5100375;28;19928;-55
2023/03/15 03:19:29;;;;;;;;;;;;;;;2.54;78.08;97628.16;5089700;28;20288;-56
2023/03/15 03:21:57;;;;;;;;;;;;;;;2.55;77.35;97634.31;5086638;28;20327;-56
2023/03/15 03:24:25;;;;;;;;;;;;;;;2.54;76.84;97646.91;5072776;28;20347;-57
2023/03/15 03:26:56;;;;;;;;;;;;;;;2.45;76.62;97655.75;5080470;28;19932;-56
2023/03/15 03:29:26;;;;;;;;;;;;;;;2.29;77.38;97646.84;5095220;28;19928;-56
2023/03/15 03:31:57;;;;;;;;;;;;;;;2.29;77.52;97665.63;5095446;28;19927;-56
2023/03/15 03:34:25;;;;;;;;;;;;;;;2.27;77.89;97665.09;5102765;28;20429;-56
2023/03/15 03:36:54;;;;;;;;;;;;;;;2.38;77.75;97672.09;5089350;28;19930;-56
2023/03/15 03:39:37;;;;;;;;;;;;;;;2.27;77.08;97675.81;5091387;28;20301;-56
2023/03/15 03:42:06;;;;;;;;;;;;;;;2.23;77.38;97685.44;5102840;28;19931;-56
2023/03/15 03:44:33;;;;;;;;;;;;;;;2.30;77.20;97691.38;5089012;28;19931;-57
2023/03/15 03:47:01;;;;;;;;;;;;;;;2.42;76.68;97696.50;5082307;28;19923;-60
2023/03/15 03:49:29;;;;;;;;;;;;;;;2.41;76.70;97697.59;5097710;28;19924;-56
2023/03/15 03:52:01;;;;;;;;;;;;;;;2.39;76.27;97695.16;5085648;28;19931;-56
2023/03/15 03:54:29;;;;;;;;;;;;;;;2.31;76.81;97709.06;5084849;28;20311;-56
2023/03/15 03:56:56;;;;;;;;;;;;;;;2.39;76.75;97705.88;5100130;28;19935;-58
2023/03/15 03:59:29;;;;;;;;;;;;;;;2.37;75.95;97713.38;5071942;28;19924;-56
2023/03/15 04:02:04;;;;;;;;;;;;;;;2.34;76.59;97721.94;5096674;28;19931;-55
2023/03/15 04:04:33;;;;;;;;;;;;;;;2.29;76.36;97713.88;5100249;28;19931;-56
2023/03/15 04:07:03;;;;;;;;;;;;;;;2.15;76.31;97721.59;5086513;28;19943;-56
2023/03/15 04:09:40;;;;;;;;;;;;;;;1.97;77.10;97728.22;5089707;28;19923;-56
2023/03/15 04:12:08;;;;;;;;;;;;;;;2.03;77.30;97729.06;5083462;28;19924;-56
2023/03/15 04:14:39;;;;;;;;;;;;;;;1.88;77.83;97728.97;5089628;28;19970;-55
2023/03/15 04:17:09;;;;;;;;;;;;;;;1.92;77.54;97725.53;5080490;28;19985;-57
2023/03/15 04:19:37;;;;;;;;;;;;;;;2.00;77.32;97732.25;5088057;28;19931;-56
2023/03/15 04:22:08;;;;;;;;;;;;;;;2.00;77.34;97733.06;5094632;28;19935;-56
2023/03/15 04:25:01;;;;;;;;;;;;;;;1.97;77.77;97748.84;5081815;28;19924;-55
2023/03/15 04:27:57;;;;;;;;;;;;;;;1.85;77.74;97746.34;5072627;28;19928;-56
2023/03/15 04:30:57;;;;;;;;;;;;;;;1.88;77.79;97753.09;5069743;28;20301;-55
2023/03/15 04:33:40;;;;;;;;;;;;;;;1.88;77.64;97764.59;5089993;28;19924;-56
2023/03/15 04:36:27;;;;;;;;;;;;;;;1.88;77.75;97775.31;5097686;28;19971;-56
2023/03/15 04:39:28;;;;;;;;;;;;;;;1.76;78.24;97777.41;5076880;28;19924;-56
2023/03/15 04:42:08;;;;;;;;;;;;;;;1.78;78.24;97785.97;5107378;28;19924;-56
2023/03/15 04:44:52;;;;;;;;;;;;;;;1.66;78.15;97788.84;5095396;28;20011;-55
2023/03/15 04:47:43;;;;;;;;;;;;;;;1.63;78.27;97796.56;5080278;28;19924;-56
2023/03/15 04:50:36;;;;;;;;;;;;;;;1.61;78.75;97796.81;5093833;28;19967;-56
2023/03/15 04:53:15;;;;;;;;;;;;;;;1.67;78.20;97808.38;5099391;28;19928;-55
2023/03/15 04:55:49;;;;;;;;;;;;;;;1.65;78.58;97807.81;5086312;28;20385;-56
2023/03/15 04:58:40;;;;;;;;;;;;;;;1.71;78.35;97812.16;5092531;28;19924;-56
2023/03/15 05:01:31;;;;;;;;;;;;;;;1.60;78.99;97810.44;5107818;28;19924;-56
2023/03/15 05:04:17;;;;;;;;;;;;;;;1.72;78.36;97805.75;5109808;28;19958;-56
2023/03/15 05:06:47;;;;;;;;;;;;;;;1.64;78.43;97807.00;5110122;28;19928;-56
2023/03/15 05:09:37;;;;;;;;;;;;;;;1.73;77.91;97810.84;5061825;28;19963;-56
2023/03/15 05:12:34;;;;;;;;;;;;;;;1.61;78.36;97820.13;5088615;28;19924;-56
2023/03/15 05:15:16;;;;;;;;;;;;;;;1.59;78.52;97812.31;5087986;28;20545;-57
2023/03/15 05:18:16;;;;;;;;;;;;;;;1.77;78.22;97816.50;5101048;28;19924;-57
2023/03/15 05:21:00;;;;;;;;;;;;;;;1.70;78.24;97832.75;5108340;28;20339;-56
2023/03/15 05:23:39;;;;;;;;;;;;;;;1.79;77.59;97835.78;5093067;28;19974;-57
2023/03/15 05:26:45;;;;;;;;;;;;;;;1.72;77.61;97840.56;5048931;28;19928;-57
2023/03/15 05:29:37;;;;;;;;;;;;;;;1.69;77.99;97841.06;5081239;28;19924;-56
2023/03/15 05:32:25;;;;;;;;;;;;;;;1.64;77.65;97843.69;5101635;28;19930;-56
2023/03/15 05:35:13;;;;;;;;;;;;;;;1.51;78.18;97845.75;5102441;28;19924;-57
2023/03/15 05:38:04;;;;;;;;;;;;;;;1.69;77.58;97854.44;5087129;28;19924;-55
2023/03/15 05:40:33;;;;;;;;;;;;;;;1.63;77.78;97863.50;5106807;28;19924;-55
2023/03/15 05:43:12;;;;;;;;;;;;;;;1.49;78.10;97858.59;5088578;28;20376;-54
2023/03/15 05:45:54;;;;;;;;;;;;;;;1.66;77.93;97869.16;5083368;28;20339;-55
2023/03/15 05:48:47;;;;;;;;;;;;;;;1.63;77.88;97876.91;5078809;28;19955;-54
2023/03/15 05:51:28;;;;;;;;;;;;;;;1.85;77.53;97882.97;5088874;28;20342;-55
2023/03/15 05:54:15;;;;;;;;;;;;;;;1.69;77.29;97894.63;5109949;28;20399;-55
2023/03/15 05:57:05;;;;;;;;;;;;;;;1.71;77.88;97892.50;5089531;28;19936;-55
2023/03/15 05:59:59;;;;;;;;;;;;;;;1.63;77.86;97892.97;5100968;28;19930;-55
2023/03/15 06:02:54;;;;;;;;;;;;;;;1.62;78.42;97900.19;5103488;28;19932;-56
2023/03/15 06:05:40;;;;;;;;;;;;;;;1.64;77.91;97906.09;5102980;28;19942;-55
2023/03/15 06:08:13;;;;;;;;;;;;;;;1.77;77.44;97918.28;5104611;28;19930;-55
2023/03/15 06:10:45;;;;;;;;;;;;;;;1.96;76.69;97916.00;5081892;28;19928;-54
2023/03/15 06:13:13;;;;;;;;;;;;;;;1.81;76.64;97919.38;5088283;28;20010;-55
2023/03/15 06:15:46;;;;;;;;;;;;;;;1.81;76.39;97920.19;5099542;28;19953;-55
2023/03/15 06:18:17;;;;;;;;;;;;;;;1.84;76.70;97918.88;5093420;28;19924;-55
2023/03/15 06:20:48;;;;;;;;;;;;;;;1.75;77.87;97915.84;5089088;28;19932;-55
2023/03/15 06:23:17;;;;;;;;;;;;;;;1.99;75.92;97905.59;5108953;28;19924;-55
2023/03/15 06:25:46;;;;;;;;;;;;;;;1.90;76.23;97911.69;5103907;28;19951;-58
2023/03/15 06:28:15;;;;;;;;;;;;;;;1.91;76.10;97919.44;5103009;28;19928;-56
2023/03/15 06:30:49;;;;;;;;;;;;;;;1.93;75.54;97917.34;5087673;28;19980;-54
2023/03/15 06:33:23;;;;;;;;;;;;;;;1.87;75.84;97915.69;5100889;28;19977;-54
2023/03/15 06:35:51;;;;;;;;;;;;;;;1.95;75.08;97920.56;5105076;28;19923;-54
2023/03/15 06:38:19;;;;;;;;;;;;;;;2.02;74.90;97910.44;5085556;28;19930;-54
2023/03/15 06:40:48;;;;;;;;;;;;;;;2.10;74.42;97915.34;5096300;28;19954;-55
2023/03/15 06:43:18;;;;;;;;;;;;;;;2.08;74.88;97919.34;5086721;28;19935;-55
2023/03/15 06:45:46;;;;;;;;;;;;;;;2.07;74.39;97928.44;5079397;28;19947;-55
2023/03/15 06:48:16;;;;;;;;;;;;;;;2.13;73.36;97926.59;5083925;28;20381;-55
2023/03/15 06:50:46;;;;;;;;;;;;;;;2.29;73.94;97933.69;5098958;28;19946;-53
2023/03/15 06:53:16;;;;;;;;;;;;;;;2.21;73.95;97929.63;5084823;28;19935;-54
2023/03/15 06:55:45;;;;;;;;;;;;;;;2.32;72.83;97933.19;5081211;28;19924;-54
2023/03/15 06:58:13;;;;;;;;;;;;;;;2.50;72.04;97924.72;5099195;28;19993;-54
2023/03/15 07:00:41;;;;;;;;;;;;;;;2.42;71.46;97919.84;5103801;28;19924;-53
2023/03/15 07:03:09;;;;;;;;;;;;;;;2.47;70.80;97921.75;5100911;28;19935;-59
2023/03/15 07:05:37;;;;;;;;;;;;;;;2.46;71.38;97920.97;5105229;28;19924;-56
2023/03/15 07:08:06;;;;;;;;;;;;;;;2.50;71.00;97926.59;5105537;28;19924;-54
2023/03/15 07:10:35;;;;;;;;;;;;;;;2.68;70.15;97928.06;5095207;28;20477;-56
2023/03/15 07:13:04;;;;;;;;;;;;;;;2.75;70.67;97940.16;5106149;28;20024;-54
2023/03/15 07:15:32;;;;;;;;;;;;;;;2.74;69.68;97927.03;5106949;28;19928;-54
2023/03/15 07:18:00;;;;;;;;;;;;;;;2.77;69.91;97935.38;5105941;28;19924;-53
2023/03/15 07:20:28;;;;;;;;;;;;;;;2.94;69.79;97932.50;5109729;28;19924;-54
2023/03/15 07:22:56;;;;;;;;;;;;;;;2.98;68.65;97932.75;5101571;28;19924;-54
2023/03/15 07:25:25;;;;;;;;;;;;;;;3.05;68.92;97939.53;5099779;28;19935;-55
2023/03/15 07:27:53;;;;;;;;;;;;;;;3.05;68.31;97931.47;5084835;28;20250;-54
2023/03/15 07:30:21;;;;;;;;;;;;;;;3.13;68.23;97941.69;5104177;28;19924;-54
2023/03/15 07:32:49;;;;;;;;;;;;;;;3.28;67.12;97945.50;5093488;28;19941;-54
2023/03/15 07:35:17;;;;;;;;;;;;;;;3.42;66.75;97939.38;5076531;28;19967;-55
2023/03/15 07:37:46;;;;;;;;;;;;;;;3.36;66.80;97942.34;5101887;28;20300;-54
2023/03/15 07:40:14;;;;;;;;;;;;;;;3.45;66.49;97946.09;5093351;28;19937;-54
2023/03/15 07:42:44;;;;;;;;;;;;;;;3.64;66.58;97952.59;5101406;28;19924;-54
2023/03/15 07:45:14;;;;;;;;;;;;;;;3.86;65.06;97949.69;5100573;28;20388;-54
2023/03/15 07:47:42;;;;;;;;;;;;;;;3.94;63.88;97951.03;5098795;28;19976;-54
2023/03/15 07:50:11;;;;;;;;;;;;;;;3.93;64.05;97960.97;5100430;28;19924;-56
2023/03/15 07:52:41;;;;;;;;;;;;;;;3.90;63.90;97963.41;5104400;28;19924;-54
2023/03/15 07:55:09;;;;;;;;;;;;;;;3.92;63.74;97972.81;5096547;28;19928;-55
2023/03/15 07:57:37;;;;;;;;;;;;;;;3.87;64.11;97972.81;5086639;28;19924;-56
2023/03/15 08:00:11;;;;;;;;;;;;;;;4.00;64.10;97968.81;5099438;28;19924;-59
2023/03/15 08:02:39;;;;;;;;;;;;;;;4.15;64.01;97973.38;5099569;28;19935;-55
2023/03/15 08:05:07;;;;;;;;;;;;;;;4.18;63.83;97968.28;5086321;28;19940;-55
2023/03/15 08:07:36;;;;;;;;;;;;;;;4.64;63.04;97965.56;5103689;28;19972;-55
2023/03/15 08:10:05;;;;;;;;;;;;;;;4.85;60.22;97976.31;5104729;28;19924;-55
2023/03/15 08:12:33;;;;;;;;;;;;;;;4.73;60.73;97972.00;5103003;28;19935;-54
2023/03/15 08:15:01;;;;;;;;;;;;;;;4.91;60.36;97964.44;5094377;28;19963;-55
2023/03/15 08:17:31;;;;;;;;;;;;;;;4.85;61.07;97976.31;5104917;28;19976;-55
2023/03/15 08:19:58;;;;;;;;;;;;;;;4.87;59.44;97974.13;5113280;28;20280;-54
2023/03/15 08:22:26;;;;;;;;;;;;;;;4.93;58.76;97989.19;5089254;28;19993;-56
2023/03/15 08:24:54;;;;;;;;;;;;;;;4.85;58.50;97976.31;5109780;28;19928;-54
2023/03/15 08:27:26;;;;;;;;;;;;;;;4.73;58.56;97981.97;5087092;28;19935;-54
2023/03/15 08:29:53;;;;;;;;;;;;;;;4.63;60.26;97985.47;5094861;28;20632;-56
2023/03/15 08:32:21;;;;;;;;;;;;;;;4.72;58.36;97989.22;5096747;28;19950;-54
2023/03/15 08:34:52;;;;;;;;;;;;;;;4.85;58.62;97987.06;5112709;28;19950;-56
2023/03/15 08:37:20;;;;;;;;;;;;;;;4.85;58.00;97985.19;5106189;28;19923;-55
2023/03/15 08:39:47;;;;;;;;;;;;;;;4.94;57.25;97985.41;5107430;28;19924;-56
2023/03/15 08:42:15;;;;;;;;;;;;;;;5.06;57.40;97982.44;5105744;28;19939;-56
2023/03/15 08:44:43;;;;;;;;;;;;;;;5.11;56.54;97985.91;5107121;28;19924;-54
2023/03/15 08:47:11;;;;;;;;;;;;;;;5.07;56.66;97990.25;5106316;28;19953;-55
2023/03/15 08:49:39;;;;;;;;;;;;;;;5.05;56.51;97995.09;5092966;28;20180;-54
2023/03/15 08:52:08;;;;;;;;;;;;;;;5.14;57.17;98000.72;5103963;28;19927;-54
2023/03/15 08:54:36;;;;;;;;;;;;;;;5.12;56.18;98003.69;5097709;28;19924;-55
2023/03/15 08:57:04;;;;;;;;;;;;;;;5.23;54.97;97994.50;5111026;28;20291;-54
2023/03/15 08:59:32;;;;;;;;;;;;;;;5.15;55.28;97996.94;5104402;28;19932;-55
2023/03/15 09:02:00;;;;;;;;;;;;;;;5.26;55.11;97999.34;5106680;28;19924;-55
2023/03/15 09:04:28;;;;;;;;;;;;;;;5.59;54.50;98001.63;5102047;28;19923;-54
2023/03/15 09:06:56;;;;;;;;;;;;;;;5.52;54.15;97997.34;5108741;28;19928;-54
2023/03/15 09:09:27;;;;;;;;;;;;;;;5.84;55.04;98001.50;5106278;28;19970;-55
2023/03/15 09:11:55;;;;;;;;;;;;;;;6.36;54.95;98000.13;5100392;28;19927;-54
2023/03/15 09:14:23;;;;;;;;;;;;;;;6.93;54.54;97997.78;5105223;28;19924;-55
2023/03/15 09:16:51;;;;;;;;;;;;;;;7.11;52.82;98005.13;5101662;28;20304;-56
2023/03/15 09:19:19;;;;;;;;;;;;;;;6.85;53.47;98006.47;5088800;28;19928;-55
2023/03/15 09:21:47;;;;;;;;;;;;;;;6.39;54.52;98009.53;5101515;28;19924;-56
2023/03/15 09:24:15;;;;;;;;;;;;;;;6.08;56.06;98015.16;5104580;28;20400;-54
2023/03/15 09:26:44;;;;;;;;;;;;;;;5.82;54.95;98021.75;5102807;28;19928;-54
2023/03/15 09:29:12;;;;;;;;;;;;;;;5.67;56.03;98028.03;5101539;28;19924;-54
2023/03/15 09:31:40;;;;;;;;;;;;;;;5.56;55.11;98018.38;5113110;28;19927;-54
2023/03/15 09:34:07;;;;;;;;;;;;;;;5.70;56.30;98019.38;5108899;28;20335;-55
2023/03/15 09:36:35;;;;;;;;;;;;;;;6.14;55.56;98024.03;5106946;28;19924;-55
2023/03/15 09:39:03;;;;;;;;;;;;;;;6.50;54.07;98016.50;5105657;28;20391;-54
2023/03/15 09:41:38;;;;;;;;;;;;;;;6.65;53.31;98012.84;5110802;28;20805;-55
2023/03/15 09:44:10;;;;;;;;;;;;;;;6.68;53.81;98023.91;5108393;28;19953;-54
2023/03/15 09:46:38;;;;;;;;;;;;;;;6.30;52.71;98018.25;5103566;28;19951;-54
2023/03/15 09:49:09;;;;;;;;;;;;;;;6.17;53.12;98032.34;5085401;28;19928;-54
2023/03/15 09:51:41;;;;;;;;;;;;;;;5.76;54.09;98029.88;5100899;28;19935;-54
2023/03/15 09:54:10;;;;;;;;;;;;;;;5.46;54.40;98030.00;5102901;28;20384;-55
2023/03/15 09:56:39;;;;;;;;;;;;;;;5.36;55.56;98030.03;5095094;28;19931;-54
2023/03/15 09:59:10;;;;;;;;;;;;;;;5.07;54.60;98033.34;5107455;28;20287;-55
2023/03/15 10:01:38;;;;;;;;;;;;;;;4.93;55.71;98037.66;5104724;28;19924;-55
2023/03/15 10:04:10;;;;;;;;;;;;;;;4.84;56.42;98033.88;5101895;28;19931;-54
2023/03/15 10:06:41;;;;;;;;;;;;;;;4.80;57.37;98032.84;5107088;28;19924;-54
2023/03/15 10:09:11;;;;;;;;;;;;;;;4.86;58.78;98037.13;5110554;28;19931;-54
2023/03/15 10:11:39;;;;;;;;;;;;;;;4.95;57.32;98039.00;5080457;28;19939;-55
2023/03/15 10:14:12;;;;;;;;;;;;;;;5.01;58.23;98037.13;5102724;28;19927;-56
2023/03/15 10:16:40;;;;;;;;;;;;;;;4.96;58.69;98047.91;5093012;28;19930;-56
2023/03/15 10:19:16;;;;;;;;;;;;;;;4.91;60.05;98042.53;5104807;28;19931;-54
2023/03/15 10:21:48;;;;;;;;;;;;;;;4.91;60.13;98046.00;5101091;28;19970;-55
2023/03/15 10:24:18;;;;;;;;;;;;;;;4.92;60.30;98053.00;5105184;28;19932;-54
2023/03/15 10:26:45;;;;;;;;;;;;;;;4.98;60.05;98043.84;5099668;28;19951;-55
2023/03/15 10:29:20;;;;;;;;;;;;;;;5.20;60.25;98043.53;5104452;28;19935;-55
2023/03/15 10:31:51;;;;;;;;;;;;;;;5.34;58.77;98042.97;5086633;28;19951;-54
2023/03/15 10:34:20;;;;;;;;;;;;;;;5.36;58.90;98044.28;5107898;28;20528;-54
2023/03/15 10:36:49;;;;;;;;;;;;;;;5.33;58.87;98044.88;5110883;28;20415;-55
2023/03/15 10:39:18;;;;;;;;;;;;;;;5.38;59.29;98046.72;5109307;28;19978;-57
2023/03/15 10:41:47;;;;;;;;;;;;;;;5.30;59.18;98042.69;5104664;28;20287;-54
2023/03/15 10:44:16;;;;;;;;;;;;;;;5.16;59.02;98038.97;5111171;28;19923;-54
2023/03/15 10:46:59;;;;;;;;;;;;;;;4.99;59.81;98041.94;5098149;28;19935;-54
2023/03/15 10:49:35;;;;;;;;;;;;;;;4.91;59.89;98050.59;5106901;28;19927;-55
2023/03/15 10:52:03;;;;;;;;;;;;;;;4.75;60.52;98040.91;5109810;28;20368;-56
2023/03/15 10:54:31;;;;;;;;;;;;;;;4.66;60.24;98044.13;5105637;28;19930;-55
2023/03/15 10:57:00;;;;;;;;;;;;;;;4.53;60.97;98049.22;5109852;28;19928;-54
2023/03/15 10:59:29;;;;;;;;;;;;;;;4.49;60.25;98042.78;5110241;28;19924;-54
2023/03/15 11:02:11;;;;;;;;;;;;;;;4.42;59.96;98048.41;5102351;28;20385;-55
2023/03/15 11:04:42;;;;;;;;;;;;;;;4.29;60.05;98041.69;5109002;28;19928;-54
2023/03/15 11:07:12;;;;;;;;;;;;;;;4.31;59.87;98044.09;5104574;28;19928;-55
2023/03/15 11:09:41;;;;;;;;;;;;;;;4.22;60.78;98045.72;5100075;28;19947;-55
2023/03/15 11:12:09;;;;;;;;;;;;;;;4.11;60.60;98042.22;5080758;28;19925;-54
2023/03/15 11:14:38;;;;;;;;;;;;;;;4.14;61.79;98047.84;5110254;28;19931;-59
2023/03/15 11:17:07;;;;;;;;;;;;;;;4.20;61.79;98054.03;5102488;28;19931;-56
2023/03/15 11:19:36;;;;;;;;;;;;;;;4.19;62.12;98052.44;5087123;28;19931;-57
2023/03/15 11:22:06;;;;;;;;;;;;;;;4.30;61.84;98050.56;5099194;28;19932;-54
2023/03/15 11:24:34;;;;;;;;;;;;;;;4.32;61.76;98045.75;5103821;28;19924;-55
2023/03/15 11:27:03;;;;;;;;;;;;;;;4.37;61.93;98051.13;5110235;28;19927;-54
2023/03/15 11:29:32;;;;;;;;;;;;;;;4.41;62.53;98055.69;5105386;28;19931;-54
2023/03/15 11:32:01;;;;;;;;;;;;;;;4.49;62.21;98050.88;5100975;28;19932;-54
2023/03/15 11:34:35;;;;;;;;;;;;;;;4.42;61.78;98053.81;5103528;28;19924;-54
2023/03/15 11:37:04;;;;;;;;;;;;;;;4.32;61.89;98051.13;5100850;28;19934;-54
2023/03/15 11:39:44;;;;;;;;;;;;;;;4.41;62.10;98047.63;5097057;28;19924;-54
2023/03/15 11:42:14;;;;;;;;;;;;;;;4.47;61.91;98048.44;5090527;28;20012;-55
2023/03/15 11:44:44;;;;;;;;;;;;;;;4.53;61.89;98050.06;5095589;28;20511;-54
2023/03/15 11:47:14;;;;;;;;;;;;;;;4.58;63.26;98046.53;5088249;28;19973;-55
2023/03/15 11:49:46;;;;;;;;;;;;;;;4.64;62.31;98046.31;5107171;28;19924;-54
2023/03/15 11:52:15;;;;;;;;;;;;;;;4.61;62.93;98049.53;5106568;28;19934;-55
2023/03/15 11:54:45;;;;;;;;;;;;;;;4.52;63.86;98048.44;5092592;28;19931;-56
2023/03/15 11:57:30;;;;;;;;;;;;;;;4.51;63.77;98046.00;5100874;28;19928;-55
2023/03/15 12:00:14;;;;;;;;;;;;;;;4.43;63.34;98050.06;5076337;28;19928;-55
2023/03/15 12:02:48;;;;;;;;;;;;;;;4.37;64.50;98045.75;5104360;28;19924;-55
2023/03/15 12:05:31;;;;;;;;;;;;;;;4.29;64.78;98038.19;5105284;28;19958;-55
2023/03/15 12:08:17;;;;;;;;;;;;;;;4.30;65.99;98051.38;5105029;28;19931;-54
2023/03/15 12:10:48;;;;;;;;;;;;;;;4.26;66.16;98055.69;5079037;28;19996;-54
2023/03/15 12:13:20;;;;;;;;;;;;;;;4.18;66.15;98065.06;5095950;28;20357;-55
2023/03/15 12:15:48;;;;;;;;;;;;;;;4.20;65.39;98059.41;5104109;28;19956;-53
2023/03/15 12:18:27;;;;;;;;;;;;;;;4.33;66.44;98069.69;5092304;28;19924;-55
2023/03/15 12:21:06;;;;;;;;;;;;;;;4.23;66.12;98064.28;5101787;28;19930;-54
2023/03/15 12:23:38;;;;;;;;;;;;;;;4.17;66.96;98065.34;5100184;28;19934;-57
2023/03/15 12:26:09;;;;;;;;;;;;;;;4.27;66.91;98053.81;5094303;28;19924;-55
2023/03/15 12:28:40;;;;;;;;;;;;;;;4.24;66.54;98062.41;5096351;28;20333;-55
2023/03/15 12:31:09;;;;;;;;;;;;;;;4.28;67.11;98061.59;5100506;28;19954;-55
2023/03/15 12:33:43;;;;;;;;;;;;;;;4.37;66.51;98061.91;5099994;28;19939;-56
2023/03/15 12:36:15;;;;;;;;;;;;;;;4.37;66.53;98062.69;5103871;28;19938;-54
2023/03/15 12:38:47;;;;;;;;;;;;;;;4.38;66.77;98063.50;5102208;28;20397;-54
2023/03/15 12:41:29;;;;;;;;;;;;;;;4.37;66.90;98072.66;5087804;28;19947;-56
2023/03/15 12:44:05;;;;;;;;;;;;;;;4.51;66.04;98062.97;5100983;28;19938;-55
2023/03/15 12:46:51;;;;;;;;;;;;;;;4.53;66.17;98066.22;5096459;28;19932;-54
2023/03/15 12:49:28;;;;;;;;;;;;;;;4.60;65.52;98055.19;5102528;28;19942;-54
2023/03/15 12:52:00;;;;;;;;;;;;;;;4.72;65.45;98059.19;5095108;28;20200;-55
2023/03/15 12:54:31;;;;;;;;;;;;;;;4.88;64.20;98061.88;5101606;28;19943;-55
2023/03/15 12:56:59;;;;;;;;;;;;;;;4.86;64.32;98059.47;5101818;28;20009;-54
2023/03/15 12:59:30;;;;;;;;;;;;;;;4.80;64.88;98060.56;5080346;28;19937;-55
2023/03/15 13:01:58;;;;;;;;;;;;;;;4.73;65.21;98068.88;5095321;28;19924;-54
2023/03/15 13:04:26;;;;;;;;;;;;;;;4.71;64.42;98062.97;5100508;28;19928;-56
2023/03/15 13:06:56;;;;;;;;;;;;;;;4.61;65.06;98065.66;5101740;28;19963;-55
2023/03/15 13:09:31;;;;;;;;;;;;;;;4.49;64.91;98064.31;5108667;28;19958;-55
2023/03/15 13:11:59;;;;;;;;;;;;;;;4.38;65.93;98067.00;5098848;28;20293;-57
2023/03/15 13:14:36;;;;;;;;;;;;;;;4.42;65.91;98067.25;5103112;28;19943;-55
2023/03/15 13:17:06;;;;;;;;;;;;;;;4.40;66.43;98072.09;5107224;28;19955;-55
2023/03/15 13:19:35;;;;;;;;;;;;;;;4.39;67.06;98065.13;5104238;28;19931;-55
2023/03/15 13:22:04;;;;;;;;;;;;;;;4.53;65.20;98068.06;5097943;28;20281;-55
2023/03/15 13:24:35;;;;;;;;;;;;;;;4.56;65.52;98075.63;5114504;28;19967;-55